Portada
METAR-TAF:

METAR-TAF

Aeroports :

Oskemen, Kazakhstan

latitud: 50-02-10N, longitud: 082-29-39E, altitud: 286 m

Observació

L'informe es va fer fa 47 minuts, a les 00:00 UTC
Vent 2 kt amb direcció variable
Temperatura 2°C
Humitat 55%
Pressió 1017 hPa
Visibilitat 10 km o més

METAR: UASK 020000Z VRB01MPS 9999 NSC 02/M06 Q1017 R12/090060 NOSIG RMK QFE738/0984

Hora: 06:47 (00:47 UTC)

Pronòstic

L'informe es va fer fa 1 hora i 44 minuts, a les 23:03 UTC
Pronòstic vàlid del 02 a les 00 UTC al 02 a les 09 UTC
Vent 12 kt del Sud-Est amb ràfegues de 21 kt
Visibilitat 10 km o més
Temporalment
l' 02 a les 00 UTC al 02 a les 06 UTC
Vent 14 kt del Sud/Sud-Est amb ràfegues de 23 kt
Temporalment
l' 02 a les 06 UTC al 02 a les 09 UTC
Vent 19 kt del Sud/Sud-Est amb ràfegues de 29 kt
Núvols disperses a una alçada de 4000 ft

TAF: UASK 012303Z 0200/0209 14006G11MPS 9999 NSC TEMPO 0200/0206 15007G12MPS TEMPO 0206/0209 15010G15MPS SCT040

Observacions i pronòstics meteorològics de més de 4000 aeroports (METAR i TAF).

Les estacions disponibles són els punts grocs i vermells al mapa.

Posi el ratolí al punt desitjat per veure el nom de l'estació.

Feu clic per veure les observacions i els pronòstics meteorològics.

Per canviar el mapa: feu clic els botons verds amb una creu de color negre per apropar; al botó verd amb un guió per allunyar la imatge; o en les fletxes verdes per a mapes adjacents.


METAR-TAF: